createdAt,value
2019-02-22T00:03:23.147Z,47.30
2019-02-22T00:07:29.902Z,46.99
2019-02-22T00:11:35.687Z,46.96
2019-02-22T00:15:41.422Z,47.40
2019-02-22T00:19:48.637Z,47.26
2019-02-22T00:23:55.624Z,47.18
2019-02-22T00:28:02.339Z,47.31
2019-02-22T00:32:08.033Z,47.26
2019-02-22T00:36:14.109Z,47.29
2019-02-22T00:40:19.908Z,47.90
2019-02-22T00:44:25.677Z,47.48
2019-02-22T00:48:31.382Z,47.63
2019-02-22T00:52:37.100Z,47.65
2019-02-22T00:56:42.784Z,47.39
2019-02-22T01:00:48.497Z,47.64
2019-02-22T01:04:54.191Z,48.04
2019-02-22T01:09:00.004Z,48.17
2019-02-22T01:13:05.823Z,48.46
2019-02-22T01:17:11.600Z,48.24
2019-02-22T01:21:17.309Z,48.49
2019-02-22T01:25:24.767Z,48.19
2019-02-22T01:29:30.461Z,48.25
2019-02-22T01:33:36.178Z,48.30
2019-02-22T01:37:41.907Z,48.11
2019-02-22T01:41:47.610Z,48.34
2019-02-22T01:45:53.321Z,48.44
2019-02-22T01:49:59.022Z,48.62
2019-02-22T01:54:04.797Z,48.85
2019-02-22T01:58:10.477Z,48.97
2019-02-22T02:02:16.252Z,48.99
2019-02-22T02:06:21.992Z,48.80
2019-02-22T02:10:27.692Z,48.86
2019-02-22T02:14:33.460Z,48.88
2019-02-22T02:18:39.313Z,48.88
2019-02-22T02:22:45.013Z,49.03
2019-02-22T02:26:50.737Z,48.66
2019-02-22T02:30:56.527Z,48.91
2019-02-22T02:35:02.263Z,48.83
2019-02-22T02:39:08.661Z,49.10
2019-02-22T02:43:14.559Z,49.03
2019-02-22T02:47:20.259Z,48.83
2019-02-22T02:51:25.966Z,48.82
2019-02-22T02:55:36.091Z,48.81
2019-02-22T02:59:41.760Z,48.93
2019-02-22T03:03:50.849Z,49.34
2019-02-22T03:07:56.741Z,49.60
2019-02-22T03:12:02.446Z,49.07
2019-02-22T03:16:08.146Z,49.55
2019-02-22T03:20:13.834Z,49.99
2019-02-22T03:24:19.536Z,49.56
2019-02-22T03:28:25.237Z,50.37
2019-02-22T03:32:30.953Z,49.40
2019-02-22T03:36:37.456Z,49.59
2019-02-22T03:40:43.130Z,49.88
2019-02-22T03:44:48.817Z,49.81
2019-02-22T03:48:54.535Z,49.73
2019-02-22T03:53:01.874Z,49.84
2019-02-22T03:57:07.728Z,50.31
2019-02-22T04:01:13.425Z,51.00
2019-02-22T04:05:19.128Z,50.98
2019-02-22T04:09:24.897Z,51.14
2019-02-22T04:13:30.606Z,51.36
2019-02-22T04:17:36.284Z,51.75
2019-02-22T04:21:42.067Z,51.71
2019-02-22T04:25:47.758Z,52.11
2019-02-22T04:29:53.478Z,52.31
2019-02-22T04:33:59.171Z,52.16
2019-02-22T04:38:04.862Z,52.11
2019-02-22T04:42:10.573Z,51.99
2019-02-22T04:46:18.205Z,52.26
2019-02-22T04:50:23.750Z,52.49
2019-02-22T04:54:29.459Z,52.72
2019-02-22T04:58:35.140Z,52.95
2019-02-22T05:02:40.845Z,53.04
2019-02-22T05:06:46.559Z,53.58
2019-02-22T05:10:52.265Z,54.83
2019-02-22T05:14:57.975Z,54.46
2019-02-22T05:19:03.683Z,54.82
2019-02-22T05:23:09.474Z,55.11
2019-02-22T05:27:15.203Z,55.09
2019-02-22T05:31:20.897Z,56.25
2019-02-22T05:35:26.591Z,55.65
2019-02-22T05:39:32.275Z,56.34
2019-02-22T05:43:38.038Z,56.66
2019-02-22T05:47:43.758Z,56.33
2019-02-22T05:51:49.491Z,56.18
2019-02-22T05:55:55.222Z,56.26
2019-02-22T06:00:01.007Z,57.36
2019-02-22T06:04:07.245Z,58.03
2019-02-22T06:08:12.948Z,58.57
2019-02-22T06:12:18.796Z,58.17
2019-02-22T06:16:24.503Z,58.66
2019-02-22T06:20:30.266Z,58.78
2019-02-22T06:24:36.051Z,58.79
2019-02-22T06:28:44.340Z,59.21
2019-02-22T06:32:51.681Z,58.12
2019-02-22T06:37:02.200Z,57.75
2019-02-22T06:41:06.359Z,57.57
2019-02-22T06:45:12.087Z,56.85
2019-02-22T06:49:17.815Z,57.00
2019-02-22T06:53:23.533Z,57.07
2019-02-22T06:57:29.221Z,56.85
2019-02-22T07:01:34.920Z,57.28
2019-02-22T07:05:40.742Z,57.49
2019-02-22T07:09:46.435Z,57.80
2019-02-22T07:13:52.118Z,57.60
2019-02-22T07:17:57.810Z,57.08
2019-02-22T07:22:03.788Z,57.07
2019-02-22T07:26:09.493Z,57.29
2019-02-22T07:30:16.210Z,57.40
2019-02-22T07:34:21.893Z,56.59
2019-02-22T07:38:27.594Z,56.98
2019-02-22T07:42:33.302Z,56.67
2019-02-22T07:46:39.045Z,56.80
2019-02-22T07:50:56.586Z,57.20
2019-02-22T07:54:52.142Z,57.19
2019-02-22T07:58:57.854Z,57.53
2019-02-22T08:03:03.579Z,57.16
2019-02-22T08:07:09.349Z,56.95
2019-02-22T08:11:15.057Z,56.46
2019-02-22T08:15:20.740Z,55.87
2019-02-22T08:19:26.440Z,56.12
2019-02-22T08:23:32.156Z,56.25
2019-02-22T08:27:40.030Z,56.35
2019-02-22T08:31:45.315Z,56.25
2019-02-22T08:35:51.239Z,56.00
2019-02-22T08:39:58.852Z,55.76
2019-02-22T08:44:04.663Z,55.51
2019-02-22T08:48:10.465Z,55.35
2019-02-22T08:52:16.190Z,54.68
2019-02-22T08:56:21.878Z,53.48
2019-02-22T09:00:27.584Z,53.11
2019-02-22T09:04:33.356Z,52.90
2019-02-22T09:08:39.116Z,52.17
2019-02-22T09:12:44.788Z,52.10
2019-02-22T09:16:50.497Z,51.92
2019-02-22T09:20:57.923Z,51.65
2019-02-22T09:25:04.123Z,51.29
2019-02-22T09:29:09.818Z,51.81
2019-02-22T09:33:15.499Z,51.70
2019-02-22T09:37:21.203Z,51.15
2019-02-22T09:41:26.925Z,49.82
2019-02-22T09:45:32.620Z,47.99
2019-02-22T09:49:38.324Z,48.42
2019-02-22T09:53:44.019Z,49.04
2019-02-22T09:57:51.364Z,49.40
2019-02-22T10:01:57.081Z,49.52
2019-02-22T10:06:03.754Z,49.22
2019-02-22T10:10:11.343Z,48.31
2019-02-22T10:14:17.043Z,48.23
2019-02-22T10:18:22.749Z,47.86
2019-02-22T10:22:28.484Z,48.00
2019-02-22T10:26:34.188Z,48.66
2019-02-22T10:30:39.897Z,48.51
2019-02-22T10:34:45.670Z,47.81
2019-02-22T10:38:51.372Z,46.38
2019-02-22T10:42:57.070Z,45.76
2019-02-22T10:47:02.778Z,44.88
2019-02-22T10:51:08.509Z,44.78
2019-02-22T10:55:15.990Z,45.95
2019-02-22T10:59:21.672Z,46.54
2019-02-22T11:03:27.378Z,46.17
2019-02-22T11:07:33.086Z,45.75
2019-02-22T11:11:39.895Z,44.87
2019-02-22T11:15:45.616Z,43.23
2019-02-22T11:19:51.321Z,43.30
2019-02-22T11:23:57.026Z,44.80
2019-02-22T11:28:02.711Z,43.98
2019-02-22T11:32:08.490Z,45.14
2019-02-22T11:36:14.196Z,44.95
2019-02-22T11:40:19.889Z,44.17
2019-02-22T11:44:25.639Z,43.45
2019-02-22T11:48:31.331Z,44.09
2019-02-22T11:52:37.043Z,40.74
2019-02-22T11:56:42.732Z,40.13
2019-02-22T12:00:48.649Z,39.95
2019-02-22T12:04:54.323Z,39.53
2019-02-22T12:09:00.021Z,39.43
2019-02-22T12:13:05.784Z,41.11
2019-02-22T12:17:11.544Z,39.86
2019-02-22T12:21:18.212Z,39.77
2019-02-22T12:25:23.941Z,40.13
2019-02-22T12:29:29.618Z,40.17
2019-02-22T12:33:35.341Z,40.58
2019-02-22T12:37:41.311Z,40.65
2019-02-22T12:41:47.057Z,41.91
2019-02-22T12:45:52.773Z,42.65
2019-02-22T12:49:58.523Z,41.98
2019-02-22T12:54:04.320Z,42.11
2019-02-22T12:58:10.036Z,42.27
2019-02-22T13:02:15.865Z,41.83
2019-02-22T13:06:21.619Z,41.69
2019-02-22T13:10:27.320Z,42.58
2019-02-22T13:14:33.019Z,41.45
2019-02-22T13:18:38.715Z,42.11
2019-02-22T13:22:44.486Z,41.82
2019-02-22T13:26:50.201Z,43.08
2019-02-22T13:30:55.938Z,42.72
2019-02-22T13:35:01.639Z,41.31
2019-02-22T13:39:20.266Z,40.71
2019-02-22T13:43:26.023Z,41.83
2019-02-22T13:47:31.767Z,43.58
2019-02-22T13:51:37.460Z,40.51
2019-02-22T13:55:43.272Z,42.32
2019-02-22T13:59:48.991Z,40.35
2019-02-22T14:03:54.686Z,41.37
2019-02-22T14:08:01.368Z,41.40
2019-02-22T14:12:07.057Z,41.55
2019-02-22T14:16:12.755Z,41.66
2019-02-22T14:20:18.610Z,41.23
2019-02-22T14:24:24.310Z,42.34
2019-02-22T14:34:52.580Z,41.53
2019-02-22T14:39:18.985Z,39.54
2019-02-22T14:43:24.683Z,39.97
2019-02-22T14:47:30.394Z,41.27
2019-02-22T14:51:36.102Z,41.20
2019-02-22T14:56:17.697Z,42.67
2019-02-22T15:00:23.425Z,42.09
2019-02-22T15:04:29.133Z,41.88
2019-02-22T15:08:34.841Z,41.79
2019-02-22T15:12:40.592Z,42.63
2019-02-22T15:16:51.822Z,41.29
2019-02-22T15:20:57.504Z,42.14
2019-02-22T15:25:03.214Z,42.05
2019-02-22T15:29:08.905Z,42.93
2019-02-22T15:33:14.610Z,41.13
2019-02-22T15:37:20.384Z,42.13
2019-02-22T15:41:26.113Z,45.38
2019-02-22T15:45:32.790Z,42.56
2019-02-22T15:49:38.451Z,42.54
2019-02-22T15:53:44.180Z,41.97
2019-02-22T15:57:49.839Z,43.15
2019-02-22T16:01:56.124Z,40.98
2019-02-22T16:06:01.841Z,41.96
2019-02-22T16:10:09.963Z,42.39
2019-02-22T16:14:15.941Z,41.17
2019-02-22T16:18:21.606Z,42.26
2019-02-22T16:22:27.353Z,42.57
2019-02-22T16:26:33.043Z,42.71
2019-02-22T16:30:38.819Z,40.64
2019-02-22T16:34:46.610Z,41.73
2019-02-22T16:38:51.870Z,42.53
2019-02-22T16:42:57.898Z,42.47
2019-02-22T16:47:03.595Z,43.04
2019-02-22T16:51:09.290Z,41.96
2019-02-22T16:55:16.980Z,42.21
2019-02-22T16:59:22.648Z,43.40
2019-02-22T17:03:28.348Z,43.84
2019-02-22T17:07:34.058Z,42.54
2019-02-22T17:11:39.766Z,43.43
2019-02-22T17:15:45.525Z,45.52
2019-02-22T17:19:51.211Z,44.75
2019-02-22T17:23:56.907Z,43.75
2019-02-22T17:28:02.616Z,43.79
2019-02-22T17:32:13.300Z,45.11
2019-02-22T17:36:26.733Z,44.07
2019-02-22T17:40:35.859Z,43.97
2019-02-22T17:44:44.975Z,44.19
2019-02-22T17:48:50.640Z,43.77
2019-02-22T17:52:56.373Z,45.53
2019-02-22T17:57:02.052Z,45.11
2019-02-22T18:01:08.122Z,45.96
2019-02-22T18:05:13.880Z,47.79
2019-02-22T18:09:19.594Z,45.97
2019-02-22T18:13:25.310Z,46.46
2019-02-22T18:17:31.973Z,46.90
2019-02-22T18:21:37.675Z,46.54
2019-02-22T18:25:43.443Z,47.09
2019-02-22T18:29:49.139Z,48.61
2019-02-22T18:33:54.837Z,46.66
2019-02-22T18:38:00.522Z,45.92
2019-02-22T18:42:06.445Z,46.07
2019-02-22T18:46:12.157Z,48.15
2019-02-22T18:50:17.926Z,48.84
2019-02-22T18:54:23.631Z,46.58
2019-02-22T18:58:29.390Z,46.68
2019-02-22T19:02:35.087Z,46.52
2019-02-22T19:06:40.796Z,48.12
2019-02-22T19:10:46.671Z,47.34
2019-02-22T19:14:52.428Z,47.57
2019-02-22T19:18:58.081Z,45.94
2019-02-22T19:23:03.995Z,48.20
2019-02-22T19:27:09.701Z,46.39
2019-02-22T19:31:15.415Z,46.16
2019-02-22T19:35:21.183Z,48.52
2019-02-22T19:39:26.876Z,46.95
2019-02-22T19:43:32.613Z,48.22
2019-02-22T19:47:41.869Z,48.29
2019-02-22T19:51:45.831Z,49.00
2019-02-22T19:55:52.510Z,48.42
2019-02-22T19:59:58.215Z,49.34
2019-02-22T20:04:03.927Z,49.21
2019-02-22T20:08:09.648Z,49.79
2019-02-22T20:12:15.336Z,50.28
2019-02-22T20:16:21.198Z,49.50
2019-02-22T20:20:27.866Z,49.90
2019-02-22T20:24:34.643Z,49.58
2019-02-22T20:28:40.399Z,52.78
2019-02-22T20:32:46.151Z,50.90
2019-02-22T20:36:51.873Z,49.28
2019-02-22T20:40:57.601Z,50.22
2019-02-22T20:45:03.390Z,50.42
2019-02-22T20:49:09.124Z,51.97
2019-02-22T20:53:14.798Z,49.31
2019-02-22T20:57:20.505Z,51.86
2019-02-22T21:01:26.269Z,51.96
2019-02-22T21:05:32.053Z,52.70
2019-02-22T21:09:37.757Z,52.80
2019-02-22T21:13:43.621Z,50.20
2019-02-22T21:17:49.334Z,51.18
2019-02-22T21:21:55.048Z,52.05
2019-02-22T21:26:00.775Z,49.91
2019-02-22T21:30:20.614Z,52.21
2019-02-22T21:34:26.313Z,50.47
2019-02-22T21:38:32.043Z,52.59
2019-02-22T21:42:37.752Z,50.09
2019-02-22T21:46:43.630Z,51.59
2019-02-22T21:50:49.337Z,52.57
2019-02-22T21:54:55.011Z,51.68
2019-02-22T21:59:00.723Z,51.24
2019-02-22T22:03:06.663Z,52.36
2019-02-22T22:07:12.417Z,52.83
2019-02-22T22:11:18.171Z,51.27
2019-02-22T22:15:24.921Z,51.69
2019-02-22T22:19:30.639Z,50.70
2019-02-22T22:23:36.353Z,52.37
2019-02-22T22:27:42.074Z,51.69
2019-02-22T22:31:47.760Z,51.09
2019-02-22T22:35:53.563Z,51.20
2019-02-22T22:39:59.284Z,49.97
2019-02-22T22:44:05.043Z,49.42
2019-02-22T22:48:10.733Z,50.87
2019-02-22T22:52:16.479Z,51.11
2019-02-22T22:56:22.189Z,54.11
2019-02-22T23:00:50.121Z,51.90
2019-02-22T23:04:58.218Z,51.84
2019-02-22T23:09:06.580Z,52.08
2019-02-22T23:13:13.876Z,52.68
2019-02-22T23:17:19.592Z,52.74
2019-02-22T23:21:26.455Z,49.76
2019-02-22T23:25:32.107Z,51.89
2019-02-22T23:29:37.807Z,51.09
2019-02-22T23:33:43.614Z,50.77
2019-02-22T23:37:49.328Z,52.00
2019-02-22T23:41:55.041Z,51.11
2019-02-22T23:46:00.743Z,50.29
2019-02-22T23:50:09.075Z,52.74
2019-02-22T23:54:14.765Z,52.96
2019-02-22T23:58:20.474Z,53.20
